turpoisk.ru alexa rank chart, turpoisk.ru alexa rank daily changes

turpoisk.ru alexa rank chart, turpoisk.ru alexa rank daily changes

turpoisk.ru
Actual rank:
105 523

RANK HISTORY

Date Rank Diff
2018/06/23 105 523 -21 602
2018/06/22 127 125 -17 468
2018/06/21 144 593 +86 052
2018/06/20 58 541 -70 041
2018/06/19 128 582 -1 296
2018/06/18 129 878 -68 679
2018/06/17 198 557 +71 076
2018/06/16 127 481 +11 095
2018/06/15 116 386 -5 533
2018/06/14 121 919 -126 463
2018/06/13 248 382 -70 088
2018/06/12 318 470 +156 622
2018/06/11 161 848 -21 488
2018/06/10 183 336 -2 070
2018/06/09 185 406 -30 170
2018/06/08 215 576 +20 129
2018/06/07 195 447 +34 875
2018/06/06 160 572 +8 701
2018/06/05 151 871 +7 402
2018/06/04 144 469 -3 981
2018/06/03 148 450 -7 017
2018/06/02 155 467 -4 841
2018/06/01 160 308 +40 127
2018/05/31 120 181 -16 036
2018/05/30 136 217 +5 603
2018/05/29 130 614 -23 119
2018/05/28 153 733 -4 064
2018/05/27 157 797 +6 950
2018/05/26 150 847 -45 410
2018/05/25 196 257 +9 553
2018/05/24 186 704 -935
2018/05/23 187 639 +39 183
2018/05/22 148 456 -30 779
2018/05/21 179 235 +7 350
2018/05/20 171 885 -40 943
2018/05/19 212 828 -92 247
2018/05/18 305 075 +64 940
2018/05/17 240 135 -19 925
2018/05/16 260 060 +130 364
2018/05/15 129 696 -32 524
2018/05/14 162 220 +45 427
2018/05/13 116 793 -75 738
2018/05/12 192 531 +28 163
2018/05/11 164 368 -34 698
2018/05/10 199 066 +33 670
2018/05/09 165 396 -8 938
2018/05/08 174 334 +13 306
2018/05/07 161 028 -19 122
2018/05/06 180 150 +17 924
2018/05/05 162 226 -39 817
2018/05/04 202 043 +59 374
2018/05/03 142 669 -93 001
2018/05/02 235 670 +94 809
2018/05/01 140 861 -88 215
2018/04/30 229 076 +8 935
2018/04/29 220 141 +19 593
2018/04/28 200 548 +32 244
2018/04/27 168 304 -27 180
2018/04/26 195 484 +14 256
2018/04/25 181 228 +19 434
2018/04/24 161 794

WIDGET FOR YOUR SITE

DOMAINS WITH THE NEAREST RANK

Domain Rank
aldi.de 105 518
palverlag.de 105 519
lunacycle.com 105 520
6speedonline.com 105 521
zet.hr 105 522
turpoisk.ru 105 523
pttnews.cc 105 524
cpy-crack.com 105 525
buf.com 105 526
bestapplicationgift.com 105 527
eueueu.com 105 528

DOMAINS WITH THE NEAREST RANK BY TLD .ru

Domain Rank
vp.ru 105 406
beesona.ru 105 429
gipnomag.ru 105 466
soglasie.ru 105 481
ispring.ru 105 482
turpoisk.ru 105 523
gramatik.ru 105 543
kom-dir.ru 105 564
pojrem.ru 105 566
dmosk.ru 105 576
orelgrad.ru 105 623